Lake Fork, Illinois
Current Conditions -  °F | °C
As of 12:15 PM on Thursday 23 Oct 2014 (Local Time) from KAAA Reporting Station
Clear Clear  
Wind Chill: 56°   Ceiling: Unl
Heat Index: 56°   Visibility: 10mi
Dew Point: 44°   Wind: 3mph
Humidity: 64%   Direction: 210°SSW
Pressure: 30.19"   Gusts: NA
Location:  39.97°N, 89.35°W
Report Text: KAAA 231715Z AUTO 21003KT 10SM CLR 13/07 A3019 RMK AO2 T01320066
Loading
Personal Weather Stations






























Interactive Weather Map New forecast layout! Learn more

10-Day Weather Forecast

Advertisements
Track Severe Weather on mobile